Time;durP1;ratioP1;P1;durP2;ratioP2;P2;SDS_P1;SDS_P2;PMS_P1;PMS_P2;Temp;Humidity;BMP_temperature;BMP_pressure;BME280_temperature;BME280_humidity;BME280_pressure;Samples;Min_cycle;Max_cycle;Signal;HPM_P1;HPM_P2
2022/10/24 00:00:59;;;;;;;9.10;5.70;;;;;;;;;;5072817;28;20061;-41
2022/10/24 00:03:24;;;;;;;9.73;5.43;;;;;;;;;;5072784;28;20025;-41
2022/10/24 00:05:50;;;;;;;11.30;6.13;;;;;;;;;;5072777;28;20040;-41
2022/10/24 00:08:15;;;;;;;7.93;5.45;;;;;;;;;;5072887;28;20081;-41
2022/10/24 00:10:45;;;;;;;11.80;5.43;;;;;;;;;;5072883;28;20031;-41
2022/10/24 00:13:11;;;;;;;8.48;4.38;;;;;;;;;;5071570;28;20062;-41
2022/10/24 00:15:36;;;;;;;10.07;7.18;;;;;;;;;;5072557;28;20421;-41
2022/10/24 00:18:02;;;;;;;8.45;5.28;;;;;;;;;;5072447;28;20036;-41
2022/10/24 00:20:27;;;;;;;17.27;5.13;;;;;;;;;;5072561;28;20024;-41
2022/10/24 00:22:53;;;;;;;8.93;5.25;;;;;;;;;;5072673;28;20414;-41
2022/10/24 00:25:18;;;;;;;8.25;4.40;;;;;;;;;;5072531;28;20024;-41
2022/10/24 00:27:43;;;;;;;7.20;5.32;;;;;;;;;;5072405;28;20074;-41
2022/10/24 00:30:09;;;;;;;13.98;5.47;;;;;;;;;;5072249;28;20471;-42
2022/10/24 00:32:34;;;;;;;9.95;5.38;;;;;;;;;;5072275;28;20489;-41
2022/10/24 00:35:00;;;;;;;10.70;5.22;;;;;;;;;;5072455;28;20094;-41
2022/10/24 00:37:25;;;;;;;11.38;5.55;;;;;;;;;;5072018;28;20048;-41
2022/10/24 00:39:51;;;;;;;15.10;6.10;;;;;;;;;;5072268;28;20039;-41
2022/10/24 00:42:16;;;;;;;8.20;5.30;;;;;;;;;;5072127;28;20031;-41
2022/10/24 00:44:42;;;;;;;12.23;5.40;;;;;;;;;;5072438;28;20099;-41
2022/10/24 00:47:16;;;;;;;15.57;5.47;;;;;;;;;;5071963;28;20119;-41
2022/10/24 00:49:47;;;;;;;8.18;5.32;;;;;;;;;;5071949;28;20056;-41
2022/10/24 00:52:14;;;;;;;14.02;6.10;;;;;;;;;;5071951;28;20031;-41
2022/10/24 00:54:40;;;;;;;9.38;5.10;;;;;;;;;;5072153;28;20032;-41
2022/10/24 00:57:05;;;;;;;8.13;4.75;;;;;;;;;;5071894;28;20021;-41
2022/10/24 00:59:31;;;;;;;8.52;5.63;;;;;;;;;;5071881;28;20587;-41
2022/10/24 01:01:57;;;;;;;10.23;4.82;;;;;;;;;;5070865;28;20417;-41
2022/10/24 01:04:22;;;;;;;7.78;4.40;;;;;;;;;;5070925;28;20047;-41
2022/10/24 01:06:58;;;;;;;10.50;5.43;;;;;;;;;;5071904;28;20085;-41
2022/10/24 01:09:45;;;;;;;10.02;5.97;;;;;;;;;;5072071;28;20060;-41
2022/10/24 01:12:10;;;;;;;9.32;5.85;;;;;;;;;;5071649;28;20032;-41
2022/10/24 01:14:54;;;;;;;8.85;5.38;;;;;;;;;;5071885;28;20029;-40
2022/10/24 01:17:36;;;;;;;8.65;4.85;;;;;;;;;;5071659;28;20085;-41
2022/10/24 01:20:16;;;;;;;11.52;5.50;;;;;;;;;;5071625;28;20051;-41
2022/10/24 01:22:44;;;;;;;17.10;5.72;;;;;;;;;;5071570;28;20032;-41
2022/10/24 01:25:16;;;;;;;8.88;5.38;;;;;;;;;;5071796;28;20099;-41
2022/10/24 01:28:06;;;;;;;14.10;6.40;;;;;;;;;;5071682;28;20115;-41
2022/10/24 01:30:37;;;;;;;10.18;5.70;;;;;;;;;;5070278;28;20041;-41
2022/10/24 01:33:05;;;;;;;9.15;5.13;;;;;;;;;;5071290;28;20025;-41
2022/10/24 01:35:39;;;;;;;8.60;5.35;;;;;;;;;;5071642;28;20446;-41
2022/10/24 01:38:15;;;;;;;11.07;5.72;;;;;;;;;;5069911;28;20499;-41
2022/10/24 01:40:47;;;;;;;10.50;4.43;;;;;;;;;;5071450;28;20055;-41
2022/10/24 01:43:15;;;;;;;10.70;5.93;;;;;;;;;;5071373;28;20028;-41
2022/10/24 01:45:43;;;;;;;10.13;4.93;;;;;;;;;;5071818;28;20017;-41
2022/10/24 01:48:11;;;;;;;7.13;5.25;;;;;;;;;;5071363;28;20040;-41
2022/10/24 01:50:37;;;;;;;10.70;5.00;;;;;;;;;;5071498;28;20013;-41
2022/10/24 01:53:03;;;;;;;14.30;6.00;;;;;;;;;;5071293;28;20028;-41
2022/10/24 01:55:30;;;;;;;10.35;4.93;;;;;;;;;;5071531;28;20294;-41
2022/10/24 01:57:56;;;;;;;8.80;5.75;;;;;;;;;;5071509;28;20029;-41
2022/10/24 02:00:21;;;;;;;6.55;4.22;;;;;;;;;;5071536;28;20027;-41
2022/10/24 02:02:50;;;;;;;11.50;5.88;;;;;;;;;;5075053;28;20040;-41
2022/10/24 02:05:19;;;;;;;9.55;5.53;;;;;;;;;;5074944;28;20023;-41
2022/10/24 02:07:46;;;;;;;8.05;5.38;;;;;;;;;;5074091;28;20078;-41
2022/10/24 02:10:33;;;;;;;11.10;5.38;;;;;;;;;;5075138;28;20031;-41
2022/10/24 02:13:00;;;;;;;10.52;7.03;;;;;;;;;;5075072;28;20031;-41
2022/10/24 02:15:28;;;;;;;10.18;5.20;;;;;;;;;;5074888;28;20026;-41
2022/10/24 02:17:53;;;;;;;8.13;4.18;;;;;;;;;;5075007;28;20029;-41
2022/10/24 02:20:23;;;;;;;10.55;4.88;;;;;;;;;;5074662;28;20032;-41
2022/10/24 02:22:50;;;;;;;8.25;4.65;;;;;;;;;;5074816;28;20021;-41
2022/10/24 02:25:36;;;;;;;12.50;5.00;;;;;;;;;;5074545;28;20021;-41
2022/10/24 02:28:08;;;;;;;12.68;5.45;;;;;;;;;;5074179;28;20068;-41
2022/10/24 02:30:36;;;;;;;8.25;5.35;;;;;;;;;;5074646;28;20032;-41
2022/10/24 02:33:01;;;;;;;9.90;4.95;;;;;;;;;;5074346;28;20020;-41
2022/10/24 02:35:28;;;;;;;10.43;6.20;;;;;;;;;;5074847;28;20106;-41
2022/10/24 02:37:57;;;;;;;8.45;4.32;;;;;;;;;;5074424;28;20056;-40
2022/10/24 02:40:23;;;;;;;9.52;6.10;;;;;;;;;;5074773;28;20036;-41
2022/10/24 02:42:51;;;;;;;8.68;5.00;;;;;;;;;;5073196;28;20462;-41
2022/10/24 02:45:17;;;;;;;9.13;4.90;;;;;;;;;;5074471;28;20079;-41
2022/10/24 02:47:43;;;;;;;8.18;5.00;;;;;;;;;;5074357;28;20052;-41
2022/10/24 02:50:09;;;;;;;9.32;4.93;;;;;;;;;;5074281;28;20086;-41
2022/10/24 02:52:35;;;;;;;9.20;4.78;;;;;;;;;;5074156;28;20012;-41
2022/10/24 02:55:01;;;;;;;8.15;5.78;;;;;;;;;;5074009;28;20453;-42
2022/10/24 02:57:26;;;;;;;8.95;4.78;;;;;;;;;;5074400;28;20013;-41
2022/10/24 02:59:52;;;;;;;9.93;5.15;;;;;;;;;;5074340;28;20028;-41
2022/10/24 03:02:18;;;;;;;7.22;3.97;;;;;;;;;;5073967;28;20017;-41
2022/10/24 03:04:43;;;;;;;12.88;4.93;;;;;;;;;;5074249;28;20386;-41
2022/10/24 03:07:08;;;;;;;8.75;5.07;;;;;;;;;;5072635;28;20078;-41
2022/10/24 03:09:34;;;;;;;9.02;5.57;;;;;;;;;;5073875;28;20157;-41
2022/10/24 03:11:59;;;;;;;9.93;5.50;;;;;;;;;;5073350;28;20028;-41
2022/10/24 03:14:25;;;;;;;7.78;5.32;;;;;;;;;;5073293;28;20524;-41
2022/10/24 03:16:50;;;;;;;8.93;4.45;;;;;;;;;;5074049;28;20021;-41
2022/10/24 03:19:16;;;;;;;5.78;4.00;;;;;;;;;;5073534;28;20075;-41
2022/10/24 03:21:41;;;;;;;8.65;5.40;;;;;;;;;;5073682;28;20017;-41
2022/10/24 03:24:07;;;;;;;8.45;4.78;;;;;;;;;;5073801;28;20478;-42
2022/10/24 03:26:32;;;;;;;8.40;4.63;;;;;;;;;;5073705;28;20012;-41
2022/10/24 03:28:57;;;;;;;35.08;5.47;;;;;;;;;;5073495;28;20041;-41
2022/10/24 03:31:23;;;;;;;15.80;5.28;;;;;;;;;;5073424;28;20024;-41
2022/10/24 03:33:48;;;;;;;7.22;4.35;;;;;;;;;;5073725;28;20036;-41
2022/10/24 03:36:13;;;;;;;7.35;4.78;;;;;;;;;;5073241;28;20035;-41
2022/10/24 03:38:39;;;;;;;19.23;7.13;;;;;;;;;;5073363;28;20041;-41
2022/10/24 03:41:04;;;;;;;6.93;5.15;;;;;;;;;;5073239;28;20043;-41
2022/10/24 03:43:30;;;;;;;6.82;4.65;;;;;;;;;;5073578;28;20024;-41
2022/10/24 03:45:55;;;;;;;9.85;4.80;;;;;;;;;;5073575;28;20052;-41
2022/10/24 03:48:20;;;;;;;7.43;4.25;;;;;;;;;;5073215;28;20068;-41
2022/10/24 03:50:46;;;;;;;9.25;5.22;;;;;;;;;;5073067;28;20024;-41
2022/10/24 03:53:11;;;;;;;9.55;5.78;;;;;;;;;;5073061;28;20094;-41
2022/10/24 03:55:37;;;;;;;7.88;4.72;;;;;;;;;;5072939;28;20033;-41
2022/10/24 03:58:02;;;;;;;8.27;5.05;;;;;;;;;;5072855;28;20083;-42
2022/10/24 04:00:28;;;;;;;11.30;6.57;;;;;;;;;;5072857;28;20032;-41
2022/10/24 04:02:54;;;;;;;8.70;4.53;;;;;;;;;;5073068;28;20035;-41
2022/10/24 04:05:19;;;;;;;9.40;5.57;;;;;;;;;;5072729;28;20020;-41
2022/10/24 04:07:44;;;;;;;10.38;4.85;;;;;;;;;;5073000;28;20033;-41
2022/10/24 04:10:10;;;;;;;7.80;5.35;;;;;;;;;;5072706;28;20029;-42
2022/10/24 04:12:36;;;;;;;11.38;5.38;;;;;;;;;;5072864;28;20028;-41
2022/10/24 04:15:01;;;;;;;9.50;4.88;;;;;;;;;;5072498;28;20497;-42
2022/10/24 04:17:26;;;;;;;9.18;4.72;;;;;;;;;;5072964;28;20028;-41
2022/10/24 04:19:52;;;;;;;7.43;4.38;;;;;;;;;;5072790;28;20044;-42
2022/10/24 04:22:18;;;;;;;7.63;5.35;;;;;;;;;;5072385;28;20181;-41
2022/10/24 04:24:43;;;;;;;7.85;4.78;;;;;;;;;;5072206;28;20025;-41
2022/10/24 04:27:09;;;;;;;8.70;5.07;;;;;;;;;;5072169;28;20032;-41
2022/10/24 04:29:34;;;;;;;8.35;5.13;;;;;;;;;;5072398;28;20056;-41
2022/10/24 04:32:00;;;;;;;7.03;4.20;;;;;;;;;;5072501;28;20051;-41
2022/10/24 04:34:26;;;;;;;6.53;4.15;;;;;;;;;;5072166;28;20458;-41
2022/10/24 04:36:51;;;;;;;10.48;4.97;;;;;;;;;;5072314;28;20036;-41
2022/10/24 04:39:18;;;;;;;7.47;4.40;;;;;;;;;;5071980;28;20117;-41
2022/10/24 04:41:44;;;;;;;8.85;4.38;;;;;;;;;;5072184;28;20035;-41
2022/10/24 04:44:09;;;;;;;8.27;5.65;;;;;;;;;;5072438;28;20016;-42
2022/10/24 04:46:34;;;;;;;9.32;4.43;;;;;;;;;;5072177;28;20530;-41
2022/10/24 04:49:00;;;;;;;11.82;4.90;;;;;;;;;;5072342;28;20029;-41
2022/10/24 04:51:25;;;;;;;10.00;5.60;;;;;;;;;;5071901;28;20502;-41
2022/10/24 04:53:51;;;;;;;8.73;4.47;;;;;;;;;;5070554;28;20021;-41
2022/10/24 04:56:17;;;;;;;9.15;5.45;;;;;;;;;;5071973;28;20032;-42
2022/10/24 04:58:43;;;;;;;8.43;4.45;;;;;;;;;;5071858;28;20454;-41
2022/10/24 05:01:08;;;;;;;6.82;4.43;;;;;;;;;;5072063;28;20035;-41
2022/10/24 05:03:34;;;;;;;10.60;5.18;;;;;;;;;;5071845;28;20044;-41
2022/10/24 05:05:59;;;;;;;10.05;5.45;;;;;;;;;;5071758;28;20032;-41
2022/10/24 05:08:25;;;;;;;9.60;5.40;;;;;;;;;;5071689;28;20040;-41
2022/10/24 05:10:50;;;;;;;12.23;5.10;;;;;;;;;;5071927;28;20033;-40
2022/10/24 05:13:16;;;;;;;9.45;5.93;;;;;;;;;;5071686;28;20344;-40
2022/10/24 05:15:42;;;;;;;9.80;4.38;;;;;;;;;;5071584;28;20043;-41
2022/10/24 05:18:07;;;;;;;7.95;3.80;;;;;;;;;;5071914;28;20492;-41
2022/10/24 05:20:33;;;;;;;9.05;4.75;;;;;;;;;;5071967;28;20409;-41
2022/10/24 05:22:59;;;;;;;7.00;4.70;;;;;;;;;;5071578;28;20487;-41
2022/10/24 05:25:24;;;;;;;8.60;4.68;;;;;;;;;;5070442;28;20029;-41
2022/10/24 05:27:51;;;;;;;9.38;4.97;;;;;;;;;;5071746;28;20082;-41
2022/10/24 05:30:16;;;;;;;10.15;5.82;;;;;;;;;;5071435;28;20028;-41
2022/10/24 05:32:42;;;;;;;11.40;5.30;;;;;;;;;;5071564;28;20103;-41
2022/10/24 05:35:08;;;;;;;7.30;4.50;;;;;;;;;;5071401;28;20046;-40
2022/10/24 05:37:33;;;;;;;8.77;5.38;;;;;;;;;;5075079;28;20072;-41
2022/10/24 05:39:59;;;;;;;12.50;5.15;;;;;;;;;;5076074;28;20426;-41
2022/10/24 05:42:24;;;;;;;8.93;4.93;;;;;;;;;;5075461;28;20101;-40
2022/10/24 05:44:50;;;;;;;8.82;5.03;;;;;;;;;;5075673;28;20117;-41
2022/10/24 05:47:15;;;;;;;7.95;5.22;;;;;;;;;;5075494;28;20020;-41
2022/10/24 05:49:41;;;;;;;10.25;4.68;;;;;;;;;;5075609;28;20068;-42
2022/10/24 05:52:06;;;;;;;12.05;5.00;;;;;;;;;;5075235;28;20023;-41
2022/10/24 05:54:32;;;;;;;9.30;5.05;;;;;;;;;;5075278;28;20466;-41
2022/10/24 05:56:58;;;;;;;13.10;5.88;;;;;;;;;;5075345;28;20050;-41
2022/10/24 05:59:23;;;;;;;8.85;5.43;;;;;;;;;;5075110;28;20051;-41
2022/10/24 06:01:49;;;;;;;8.45;5.13;;;;;;;;;;5073892;28;20016;-41
2022/10/24 06:04:15;;;;;;;12.35;5.28;;;;;;;;;;5075039;28;20033;-41
2022/10/24 06:06:41;;;;;;;5.85;4.55;;;;;;;;;;5075023;28;20025;-41
2022/10/24 06:09:07;;;;;;;8.25;4.68;;;;;;;;;;5075023;28;20050;-40
2022/10/24 06:11:33;;;;;;;7.63;5.25;;;;;;;;;;5075247;28;20103;-41
2022/10/24 06:13:59;;;;;;;7.97;5.70;;;;;;;;;;5075126;28;20379;-41
2022/10/24 06:16:26;;;;;;;5.60;3.70;;;;;;;;;;5075134;28;20111;-41
2022/10/24 06:18:52;;;;;;;11.90;6.60;;;;;;;;;;5074907;28;20035;-41
2022/10/24 06:21:17;;;;;;;17.67;5.45;;;;;;;;;;5074613;28;20403;-41
2022/10/24 06:23:42;;;;;;;8.70;5.60;;;;;;;;;;5074806;28;20090;-41
2022/10/24 06:26:09;;;;;;;15.75;6.28;;;;;;;;;;5073437;28;20066;-41
2022/10/24 06:28:35;;;;;;;10.65;5.45;;;;;;;;;;5074689;28;20044;-40
2022/10/24 06:31:02;;;;;;;8.50;5.47;;;;;;;;;;5074625;28;20032;-40
2022/10/24 06:33:28;;;;;;;10.73;5.25;;;;;;;;;;5074638;28;20482;-41
2022/10/24 06:35:53;;;;;;;11.20;5.50;;;;;;;;;;5074499;28;20056;-41
2022/10/24 06:38:19;;;;;;;7.88;5.63;;;;;;;;;;5074258;28;20056;-41
2022/10/24 06:40:44;;;;;;;7.47;4.53;;;;;;;;;;5074764;28;20086;-41
2022/10/24 06:43:10;;;;;;;8.57;5.10;;;;;;;;;;5074401;28;20419;-41
2022/10/24 06:45:38;;;;;;;6.00;4.45;;;;;;;;;;5074454;28;20028;-41
2022/10/24 06:48:04;;;;;;;8.43;5.57;;;;;;;;;;5074305;28;20108;-41
2022/10/24 06:50:30;;;;;;;7.18;5.18;;;;;;;;;;5074277;28;20529;-41
2022/10/24 06:52:55;;;;;;;7.82;4.53;;;;;;;;;;5074355;28;20028;-41
2022/10/24 06:55:21;;;;;;;8.32;5.65;;;;;;;;;;5074061;28;20086;-41
2022/10/24 06:57:47;;;;;;;7.90;5.43;;;;;;;;;;5074251;28;20029;-41
2022/10/24 07:00:13;;;;;;;6.53;4.68;;;;;;;;;;5074146;28;20020;-41
2022/10/24 07:02:39;;;;;;;11.88;5.70;;;;;;;;;;5073920;28;20035;-41
2022/10/24 07:05:07;;;;;;;11.15;6.25;;;;;;;;;;5074223;28;20025;-41
2022/10/24 07:07:33;;;;;;;8.13;5.60;;;;;;;;;;5074256;28;20024;-40
2022/10/24 07:09:59;;;;;;;9.95;4.68;;;;;;;;;;5074219;28;20020;-41
2022/10/24 07:12:27;;;;;;;11.65;5.70;;;;;;;;;;5074192;28;20032;-41
2022/10/24 07:14:52;;;;;;;10.38;5.35;;;;;;;;;;5073779;28;20031;-41
2022/10/24 07:17:18;;;;;;;10.35;5.13;;;;;;;;;;5073970;28;20039;-41
2022/10/24 07:19:43;;;;;;;10.15;5.40;;;;;;;;;;5074072;28;20382;-41
2022/10/24 07:22:09;;;;;;;9.50;5.82;;;;;;;;;;5073700;28;20036;-41
2022/10/24 07:24:34;;;;;;;7.75;4.57;;;;;;;;;;5073687;28;20021;-41
2022/10/24 07:27:00;;;;;;;11.88;5.60;;;;;;;;;;5073954;28;20035;-41
2022/10/24 07:29:25;;;;;;;10.65;4.97;;;;;;;;;;5073547;28;20085;-42
2022/10/24 07:31:51;;;;;;;10.35;5.05;;;;;;;;;;5073714;28;20056;-41
2022/10/24 07:34:16;;;;;;;9.65;4.72;;;;;;;;;;5073209;28;20055;-42
2022/10/24 07:36:42;;;;;;;8.88;4.55;;;;;;;;;;5072272;28;20029;-41
2022/10/24 07:39:08;;;;;;;7.57;4.45;;;;;;;;;;5073176;28;20059;-42
2022/10/24 07:41:35;;;;;;;9.77;6.75;;;;;;;;;;5073394;28;20386;-41
2022/10/24 07:44:01;;;;;;;10.45;5.53;;;;;;;;;;5073405;28;20021;-41
2022/10/24 07:46:26;;;;;;;9.68;4.18;;;;;;;;;;5073168;28;20055;-41
2022/10/24 07:48:53;;;;;;;8.48;4.88;;;;;;;;;;5073276;28;20370;-41
2022/10/24 07:51:19;;;;;;;14.07;5.75;;;;;;;;;;5073125;28;20020;-41
2022/10/24 07:53:44;;;;;;;12.02;5.93;;;;;;;;;;5073267;28;20092;-41
2022/10/24 07:56:13;;;;;;;7.15;4.50;;;;;;;;;;5073091;28;20606;-41
2022/10/24 07:58:38;;;;;;;12.02;5.32;;;;;;;;;;5071337;28;20056;-41
2022/10/24 08:01:05;;;;;;;8.23;5.25;;;;;;;;;;5073083;28;20075;-40
2022/10/24 08:03:30;;;;;;;13.65;6.07;;;;;;;;;;5072929;28;20023;-41
2022/10/24 08:05:56;;;;;;;11.25;6.65;;;;;;;;;;5073112;28;20036;-41
2022/10/24 08:08:21;;;;;;;17.50;5.93;;;;;;;;;;5072696;28;20017;-41
2022/10/24 08:10:47;;;;;;;9.27;5.60;;;;;;;;;;5072690;28;20032;-41
2022/10/24 08:13:12;;;;;;;7.05;4.72;;;;;;;;;;5072571;28;20013;-46
2022/10/24 08:15:38;;;;;;;9.25;5.53;;;;;;;;;;5072551;28;20380;-41
2022/10/24 08:18:03;;;;;;;8.35;5.75;;;;;;;;;;5072813;28;20013;-41
2022/10/24 08:20:29;;;;;;;14.55;5.60;;;;;;;;;;5072729;28;20055;-41
2022/10/24 08:22:54;;;;;;;21.40;6.90;;;;;;;;;;5072495;28;20378;-41
2022/10/24 08:25:20;;;;;;;13.18;7.20;;;;;;;;;;5071208;28;20355;-41
2022/10/24 08:27:45;;;;;;;10.10;5.72;;;;;;;;;;5072383;28;20138;-41
2022/10/24 08:30:11;;;;;;;9.65;5.82;;;;;;;;;;5072260;28;20037;-41
2022/10/24 08:32:37;;;;;;;13.68;6.40;;;;;;;;;;5072400;28;20025;-41
2022/10/24 08:35:03;;;;;;;14.70;7.05;;;;;;;;;;5072088;28;20110;-41
2022/10/24 08:37:28;;;;;;;13.60;5.93;;;;;;;;;;5072117;28;20086;-41
2022/10/24 08:39:54;;;;;;;25.13;8.40;;;;;;;;;;5072608;28;20086;-41
2022/10/24 08:42:21;;;;;;;9.48;5.32;;;;;;;;;;5072305;28;20052;-41
2022/10/24 08:44:46;;;;;;;11.32;6.22;;;;;;;;;;5072522;28;20028;-41
2022/10/24 08:47:12;;;;;;;8.43;5.32;;;;;;;;;;5072338;28;20046;-41
2022/10/24 08:49:47;;;;;;;10.98;5.95;;;;;;;;;;5070882;28;20028;-41
2022/10/24 08:52:30;;;;;;;8.48;7.03;;;;;;;;;;5072253;28;20047;-41
2022/10/24 08:55:01;;;;;;;9.32;5.78;;;;;;;;;;5072005;28;20093;-41
2022/10/24 08:57:29;;;;;;;12.30;6.10;;;;;;;;;;5071773;28;20139;-41
2022/10/24 08:59:57;;;;;;;14.13;5.82;;;;;;;;;;5072231;28;20025;-41
2022/10/24 09:02:29;;;;;;;11.75;6.97;;;;;;;;;;5071734;28;20029;-44
2022/10/24 09:04:56;;;;;;;7.22;5.03;;;;;;;;;;5071748;28;20039;-41
2022/10/24 09:07:22;;;;;;;11.23;6.93;;;;;;;;;;5072080;28;20028;-41
2022/10/24 09:09:49;;;;;;;8.23;5.85;;;;;;;;;;5071795;28;20035;-41
2022/10/24 09:12:16;;;;;;;13.48;6.57;;;;;;;;;;5071617;28;20150;-41
2022/10/24 09:14:43;;;;;;;9.55;6.05;;;;;;;;;;5071971;28;20076;-41
2022/10/24 09:17:08;;;;;;;10.68;5.95;;;;;;;;;;5071926;28;20016;-41
2022/10/24 09:19:34;;;;;;;11.80;6.13;;;;;;;;;;5071673;28;20039;-41
2022/10/24 09:22:00;;;;;;;9.52;5.65;;;;;;;;;;5071539;28;20016;-41
2022/10/24 09:24:29;;;;;;;8.93;4.55;;;;;;;;;;5071497;28;20040;-42
2022/10/24 09:26:54;;;;;;;10.65;6.05;;;;;;;;;;5071610;28;20471;-41
2022/10/24 09:29:19;;;;;;;10.80;6.22;;;;;;;;;;5071536;28;20035;-40
2022/10/24 09:31:48;;;;;;;13.50;6.55;;;;;;;;;;5071784;28;20024;-41
2022/10/24 09:34:14;;;;;;;6.90;5.25;;;;;;;;;;5071529;28;20064;-41
2022/10/24 09:36:40;;;;;;;12.00;6.85;;;;;;;;;;5071600;28;20021;-41
2022/10/24 09:39:24;;;;;;;9.65;5.57;;;;;;;;;;5071246;28;20048;-41
2022/10/24 09:41:50;;;;;;;10.90;6.45;;;;;;;;;;5071568;28;20025;-41
2022/10/24 09:44:32;;;;;;;13.82;7.70;;;;;;;;;;5071707;28;20023;-41
2022/10/24 09:46:58;;;;;;;10.70;5.93;;;;;;;;;;5071734;28;20036;-41
2022/10/24 09:49:30;;;;;;;14.68;6.93;;;;;;;;;;5071622;28;20021;-41
2022/10/24 09:52:14;;;;;;;13.30;7.72;;;;;;;;;;5071425;28;20066;-41
2022/10/24 09:54:40;;;;;;;11.05;5.43;;;;;;;;;;5071305;28;20032;-41
2022/10/24 09:57:07;;;;;;;12.30;5.57;;;;;;;;;;5071303;28;20467;-42
2022/10/24 09:59:32;;;;;;;8.43;5.25;;;;;;;;;;5071331;28;20024;-41
2022/10/24 10:02:11;;;;;;;11.85;6.35;;;;;;;;;;5071160;28;20039;-41
2022/10/24 10:04:37;;;;;;;13.35;6.82;;;;;;;;;;5071233;28;20040;-41
2022/10/24 10:07:13;;;;;;;11.45;6.32;;;;;;;;;;5071145;28;20016;-43
2022/10/24 10:09:46;;;;;;;11.95;6.75;;;;;;;;;;5071228;28;20462;-41
2022/10/24 10:12:24;;;;;;;10.48;6.10;;;;;;;;;;5071086;28;20081;-41
2022/10/24 10:14:50;;;;;;;9.27;5.70;;;;;;;;;;5071107;28;20033;-41
2022/10/24 10:17:24;;;;;;;11.35;6.45;;;;;;;;;;5071092;28;20471;-42
2022/10/24 10:19:50;;;;;;;11.07;6.07;;;;;;;;;;5071114;28;20050;-41
2022/10/24 10:22:24;;;;;;;12.40;6.85;;;;;;;;;;5072245;28;20020;-41
2022/10/24 10:24:50;;;;;;;10.35;6.10;;;;;;;;;;5075106;28;20421;-41
2022/10/24 10:27:29;;;;;;;8.70;5.28;;;;;;;;;;5074620;28;20015;-41
2022/10/24 10:30:16;;;;;;;9.20;6.55;;;;;;;;;;5074633;28;20024;-45
2022/10/24 10:32:59;;;;;;;17.13;6.88;;;;;;;;;;5074740;28;20077;-41
2022/10/24 10:35:32;;;;;;;11.07;6.97;;;;;;;;;;5074463;28;20041;-41
2022/10/24 10:37:57;;;;;;;;;;;;;;;;;;5073685;28;20132;-41
2022/10/24 10:40:42;;;;;;;16.88;6.22;;;;;;;;;;5074505;28;19991;-41
2022/10/24 10:43:19;;;;;;;10.18;5.68;;;;;;;;;;5074401;28;20052;-41
2022/10/24 10:45:57;;;;;;;12.07;6.15;;;;;;;;;;5074541;28;20029;-41
2022/10/24 10:48:35;;;;;;;12.57;6.30;;;;;;;;;;5074404;28;20115;-41
2022/10/24 10:51:04;;;;;;;11.55;6.68;;;;;;;;;;5074581;28;20383;-41
2022/10/24 10:53:42;;;;;;;8.30;5.20;;;;;;;;;;5074088;28;20048;-42
2022/10/24 10:56:14;;;;;;;14.05;5.65;;;;;;;;;;5074021;28;20051;-42
2022/10/24 10:58:45;;;;;;;9.15;5.78;;;;;;;;;;5074105;28;20492;-41
2022/10/24 11:01:29;;;;;;;11.18;5.57;;;;;;;;;;5074302;28;20037;-41
2022/10/24 11:04:01;;;;;;;7.72;4.97;;;;;;;;;;5074053;28;20115;-41
2022/10/24 11:06:26;;;;;;;8.05;5.25;;;;;;;;;;5074261;28;20025;-40
2022/10/24 11:09:01;;;;;;;8.38;5.47;;;;;;;;;;5073949;28;20028;-41
2022/10/24 11:11:29;;;;;;;14.75;5.75;;;;;;;;;;5074196;28;20421;-41
2022/10/24 11:14:13;;;;;;;10.50;5.85;;;;;;;;;;5072543;28;20029;-41
2022/10/24 11:16:38;;;;;;;9.02;6.00;;;;;;;;;;5073955;28;20176;-41
2022/10/24 11:19:21;;;;;;;10.40;6.10;;;;;;;;;;5073926;28;20016;-41
2022/10/24 11:21:48;;;;;;;10.05;5.50;;;;;;;;;;5073783;28;20054;-41
2022/10/24 11:24:16;;;;;;;10.25;5.50;;;;;;;;;;5073957;28;20082;-41
2022/10/24 11:27:07;;;;;;;11.43;5.32;;;;;;;;;;5073965;28;20060;-41
2022/10/24 11:29:41;;;;;;;12.40;6.13;;;;;;;;;;5065015;28;20036;-40
2022/10/24 11:32:10;;;;;;;13.82;6.85;;;;;;;;;;5073752;28;20036;-41
2022/10/24 11:34:55;;;;;;;7.68;4.65;;;;;;;;;;5072702;28;20082;-40
2022/10/24 11:37:25;;;;;;;8.82;6.57;;;;;;;;;;5073213;28;20486;-41
2022/10/24 11:40:05;;;;;;;8.43;5.60;;;;;;;;;;5073555;28;20099;-41
2022/10/24 11:42:39;;;;;;;9.65;6.32;;;;;;;;;;5073401;28;20028;-41
2022/10/24 11:45:06;;;;;;;9.73;4.88;;;;;;;;;;5073328;28;20032;-41
2022/10/24 11:47:50;;;;;;;7.03;4.63;;;;;;;;;;5073200;28;20016;-41
2022/10/24 11:50:19;;;;;;;9.65;5.43;;;;;;;;;;5073063;28;20115;-41
2022/10/24 11:52:47;;;;;;;10.52;5.85;;;;;;;;;;5073225;28;20021;-40
2022/10/24 11:55:12;;;;;;;12.23;6.05;;;;;;;;;;5072917;28;20044;-41
2022/10/24 11:57:38;;;;;;;11.25;6.05;;;;;;;;;;5073048;28;20104;-41
2022/10/24 12:00:04;;;;;;;10.23;6.80;;;;;;;;;;5073013;28;20032;-40
2022/10/24 12:02:55;;;;;;;10.40;6.45;;;;;;;;;;5073156;28;20438;-41
2022/10/24 12:05:21;;;;;;;;;;;;;;;;;;5073346;28;20058;-41
2022/10/24 12:07:52;;;;;;;9.90;6.28;;;;;;;;;;5072870;28;19908;-41
2022/10/24 12:10:33;;;;;;;12.27;6.05;;;;;;;;;;5072611;28;20055;-41
2022/10/24 12:13:17;;;;;;;7.38;5.03;;;;;;;;;;5072769;28;20020;-42
2022/10/24 12:15:44;;;;;;;16.00;5.80;;;;;;;;;;5072508;28;20493;-41
2022/10/24 12:18:25;;;;;;;9.55;6.25;;;;;;;;;;5071272;28;20024;-40
2022/10/24 12:20:54;;;;;;;14.27;5.90;;;;;;;;;;5072894;28;20029;-40
2022/10/24 12:23:22;;;;;;;7.55;5.72;;;;;;;;;;5072400;28;20518;-41
2022/10/24 12:26:00;;;;;;;8.95;6.18;;;;;;;;;;5072651;28;20498;-41
2022/10/24 12:28:26;;;;;;;10.35;6.45;;;;;;;;;;5072784;28;20382;-41
2022/10/24 12:31:08;;;;;;;8.43;5.47;;;;;;;;;;5072635;28;20037;-41
2022/10/24 12:33:34;;;;;;;14.70;7.38;;;;;;;;;;5072481;28;20055;-42
2022/10/24 12:36:02;;;;;;;11.73;5.85;;;;;;;;;;5072367;28;20474;-41
2022/10/24 12:38:28;;;;;;;7.35;5.00;;;;;;;;;;5072149;28;20506;-41
2022/10/24 12:40:54;;;;;;;8.50;6.07;;;;;;;;;;5071391;28;20033;-41
2022/10/24 12:43:31;;;;;;;8.43;5.05;;;;;;;;;;5072054;28;20484;-42
2022/10/24 12:46:00;;;;;;;11.75;6.50;;;;;;;;;;5071864;28;20035;-41
2022/10/24 12:48:31;;;;;;;9.43;4.97;;;;;;;;;;5072222;28;20024;-41
2022/10/24 12:51:00;;;;;;;12.77;6.35;;;;;;;;;;5072045;28;20510;-41
2022/10/24 12:53:37;;;;;;;18.48;6.85;;;;;;;;;;5072259;28;20028;-41
2022/10/24 12:56:05;;;;;;;13.30;8.20;;;;;;;;;;5071977;28;20040;-41
2022/10/24 12:58:33;;;;;;;8.07;5.22;;;;;;;;;;5071850;28;20021;-41
2022/10/24 13:01:00;;;;;;;13.80;5.72;;;;;;;;;;5071880;28;20035;-41
2022/10/24 13:03:44;;;;;;;11.88;6.35;;;;;;;;;;5071768;28;20486;-41
2022/10/24 13:06:29;;;;;;;8.45;4.45;;;;;;;;;;5071732;28;20036;-41
2022/10/24 13:09:13;;;;;;;8.63;5.68;;;;;;;;;;5067792;28;20033;-41
2022/10/24 13:11:42;;;;;;;10.98;5.38;;;;;;;;;;5071723;28;20028;-40
2022/10/24 13:14:07;;;;;;;12.75;7.35;;;;;;;;;;5071366;28;20027;-41
2022/10/24 13:17:00;;;;;;;13.07;5.90;;;;;;;;;;5070472;28;20032;-40
2022/10/24 13:19:26;;;;;;;10.52;5.18;;;;;;;;;;5070539;28;20036;-41
2022/10/24 13:21:55;;;;;;;11.05;7.18;;;;;;;;;;5071546;28;20347;-44
2022/10/24 13:24:21;;;;;;;8.35;6.10;;;;;;;;;;5071849;28;20414;-41
2022/10/24 13:26:47;;;;;;;11.05;6.18;;;;;;;;;;5070703;28;20021;-42
2022/10/24 13:29:22;;;;;;;9.00;5.65;;;;;;;;;;5071606;28;20067;-41
2022/10/24 13:31:52;;;;;;;10.40;5.88;;;;;;;;;;5071649;28;20025;-41
2022/10/24 13:34:43;;;;;;;8.95;5.05;;;;;;;;;;5071446;28;20035;-41
2022/10/24 13:37:09;;;;;;;13.52;6.03;;;;;;;;;;5062297;28;20060;-41
2022/10/24 13:39:37;;;;;;;11.95;6.00;;;;;;;;;;5071696;28;20063;-41
2022/10/24 13:42:05;;;;;;;14.48;5.97;;;;;;;;;;5071695;28;20025;-40
2022/10/24 13:44:45;;;;;;;11.45;5.35;;;;;;;;;;5071383;28;20100;-41
2022/10/24 13:47:34;;;;;;;8.43;4.65;;;;;;;;;;5071351;28;20035;-41
2022/10/24 13:50:02;;;;;;;11.45;6.25;;;;;;;;;;5068377;28;20045;-40
2022/10/24 13:52:31;;;;;;;8.45;5.45;;;;;;;;;;5071522;28;20025;-41
2022/10/24 13:54:59;;;;;;;8.30;5.47;;;;;;;;;;5071332;28;20037;-41
2022/10/24 13:57:28;;;;;;;12.07;6.85;;;;;;;;;;5073268;28;20370;-41
2022/10/24 13:59:55;;;;;;;13.93;5.97;;;;;;;;;;5075307;28;20079;-41
2022/10/24 14:02:22;;;;;;;10.55;5.68;;;;;;;;;;5075450;28;20458;-41
2022/10/24 14:04:48;;;;;;;9.38;6.13;;;;;;;;;;5075187;28;20363;-41
2022/10/24 14:07:25;;;;;;;9.00;5.28;;;;;;;;;;5075166;28;20019;-41
2022/10/24 14:09:58;;;;;;;15.15;5.32;;;;;;;;;;5074970;28;20029;-41
2022/10/24 14:12:24;;;;;;;8.77;5.00;;;;;;;;;;5075375;28;20024;-43
2022/10/24 14:14:50;;;;;;;6.20;3.90;;;;;;;;;;5074996;28;20303;-41
2022/10/24 14:17:22;;;;;;;10.85;6.63;;;;;;;;;;5074744;28;20032;-41
2022/10/24 14:19:49;;;;;;;7.75;5.50;;;;;;;;;;5073693;28;20032;-41
2022/10/24 14:22:18;;;;;;;12.35;5.68;;;;;;;;;;5075145;28;20111;-41
2022/10/24 14:24:45;;;;;;;11.02;5.47;;;;;;;;;;5074823;28;20032;-41
2022/10/24 14:27:12;;;;;;;7.88;3.85;;;;;;;;;;5074719;28;20028;-41
2022/10/24 14:29:37;;;;;;;8.15;5.55;;;;;;;;;;5075123;28;20029;-41
2022/10/24 14:32:06;;;;;;;15.27;5.07;;;;;;;;;;5075000;28;20047;-42
2022/10/24 14:34:33;;;;;;;6.40;4.38;;;;;;;;;;5074910;28;20390;-41
2022/10/24 14:37:04;;;;;;;8.45;4.95;;;;;;;;;;5074832;28;20116;-41
2022/10/24 14:39:29;;;;;;;12.45;4.75;;;;;;;;;;5074786;28;20053;-41
2022/10/24 14:41:57;;;;;;;14.52;6.43;;;;;;;;;;5074888;28;20027;-41
2022/10/24 14:44:23;;;;;;;10.85;5.30;;;;;;;;;;5074668;28;20047;-41
2022/10/24 14:47:02;;;;;;;2.30;1.95;;;;;;;;;;5074431;28;20475;-42